Eagle Sydney — 3FUU — position and weather

sailwx.info

Track history (hours):
 
Tides and Currents Weather Stations Pressure Air Temp Water Temp Dewpoint Dewpoint Depression Visibility Wind Speed Wind Dir Waves Ship Positions

Eagle Sydney

Last reported at 2017-Oct-07 03:08 UTC. Time now 2017-Oct-17 03:59 UTC.
Position N 38°14' W 074°28'.
Warning: this ship's position is 10 days out of date.

Length 229 m; draft 12 m.

Type: Ship (hazmat cat A). MMSI: 352124930.

Date/timePositionNaut miles runAvg speedWind from/ knotsBaromVisibWave heightAir tempDewpointWater temp
2017-Oct-07 03:08N 38°14' W 074°28'412.9
2017-Oct-07 02:51N 38°17' W 074°31'412.9
2017-Oct-07 02:30N 38°21' W 074°33'612.7
2017-Oct-07 02:00N 38°27' W 074°37'510.9
2017-Oct-07 01:30N 38°32' W 074°40'2 0.3
2017-Oct-06 19:46N 38°33' W 074°40'0 0.1
2017-Oct-06 19:30N 38°33' W 074°40'0 0.1
2017-Oct-06 19:00N 38°33' W 074°40'0 0.2
2017-Oct-06 18:30N 38°33' W 074°40'0 0.0
2017-Oct-06 18:00N 38°33' W 074°40'0 0.1
2017-Oct-06 17:28N 38°33' W 074°40'0 0.2
2017-Oct-06 17:00N 38°33' W 074°40'0 0.0
2017-Oct-06 16:30N 38°33' W 074°40'0 0.0
2017-Oct-06 15:58N 38°33' W 074°40'0 0.1
2017-Oct-06 15:30N 38°33' W 074°40'0 0.0
2017-Oct-06 15:00N 38°33' W 074°40'0 0.0
2017-Oct-06 14:30N 38°33' W 074°40'0 0.0
2017-Oct-06 14:00N 38°33' W 074°40'0 0.0
2017-Oct-06 13:30N 38°33' W 074°40'0 0.0
2017-Oct-06 13:00N 38°33' W 074°40'0 0.0
2017-Oct-06 12:30N 38°33' W 074°40'0 0.0
2017-Oct-06 11:58N 38°33' W 074°40'0 0.0
2017-Oct-06 11:28N 38°33' W 074°40'0 0.0
2017-Oct-06 10:58N 38°33' W 074°40'0 0.0
2017-Oct-06 10:25N 38°33' W 074°40'0 0.0
2017-Oct-06 09:40N 38°33' W 074°40'0 0.0
2017-Oct-06 09:31N 38°33' W 074°40'0 0.1
2017-Oct-06 08:58N 38°33' W 074°40'0 0.0
2017-Oct-06 08:31N 38°33' W 074°40'0 0.0
2017-Oct-06 07:46N 38°33' W 074°40'0 0.0
2017-Oct-06 07:28N 38°33' W 074°40'0 0.0
2017-Oct-06 06:58N 38°33' W 074°40'0 0.0
2017-Oct-06 06:31N 38°33' W 074°40'0 0.0
2017-Oct-06 05:58N 38°33' W 074°40'0 0.0
2017-Oct-06 05:28N 38°33' W 074°40'0 0.0
2017-Oct-06 04:31N 38°33' W 074°40'0 0.1
2017-Oct-06 04:22N 38°33' W 074°40'0 0.0
2017-Oct-06 03:58N 38°33' W 074°40'0 0.0
2017-Oct-06 03:19N 38°33' W 074°40'0 0.0
2017-Oct-06 02:46N 38°33' W 074°40'0 0.0
2017-Oct-06 02:13N 38°33' W 074°40'0 0.0
2017-Oct-06 01:58N 38°33' W 074°40'0 0.0
2017-Oct-06 01:19N 38°33' W 074°40'0 0.0
2017-Oct-06 00:49N 38°33' W 074°40'0 0.0
2017-Oct-06 00:28N 38°33' W 074°40'0 0.0
2017-Oct-05 23:58N 38°33' W 074°40'0 0.0
2017-Oct-05 23:28N 38°33' W 074°40'0 0.0
2017-Oct-05 22:28N 38°33' W 074°40'0 0.0
2017-Oct-05 21:58N 38°33' W 074°40'0 0.0
2017-Oct-05 16:52N 38°33' W 074°40'0 0.0
2017-Oct-05 15:28N 38°33' W 074°40'0 0.0
2017-Oct-05 14:58N 38°33' W 074°40'0 0.0
2017-Oct-05 14:28N 38°33' W 074°40'0 0.0
2017-Oct-05 14:01N 38°33' W 074°40'0 0.1
2017-Oct-05 13:30N 38°33' W 074°40'2 3.1
2017-Oct-05 13:01N 38°32' W 074°42'4 8.8
2017-Oct-05 12:30N 38°29' W 074°46'510.3
2017-Oct-05 12:00N 38°34' W 074°50'510.0
2017-Oct-05 11:30N 38°38' W 074°53'5 9.8
2017-Oct-05 11:00N 38°42' W 074°57'5 9.4
2017-Oct-05 10:30N 38°45' W 075°01'5 9.0
2017-Oct-05 10:01N 38°49' W 075°04'4 7.9
2017-Oct-05 09:30N 38°53' W 075°05'5 9.5
2017-Oct-05 09:01N 38°58' W 075°07'510.2
2017-Oct-05 08:30N 39°02' W 075°10'611.1
2017-Oct-05 08:00N 39°07' W 075°13'612.1
2017-Oct-05 07:31N 39°12' W 075°17'612.9
2017-Oct-05 07:01N 39°17' W 075°22'713.0
2017-Oct-05 06:30N 39°22' W 075°28'612.4
2017-Oct-05 06:00N 39°27' W 075°33'611.2
2017-Oct-05 05:30N 39°32' W 075°33'510.4
2017-Oct-05 05:00N 39°37' W 075°35'5 9.8
2017-Oct-05 04:31N 39°41' W 075°31'4 8.6
2017-Oct-05 04:01N 39°45' W 075°29'4 7.5
2017-Oct-05 03:30N 39°48' W 075°26'2 3.2
2017-Oct-05 03:00N 39°49' W 075°24'0 0.0
2017-Oct-05 02:30N 39°49' W 075°24'0 0.0
2017-Oct-05 02:00N 39°49' W 075°24'0 0.0
2017-Oct-05 01:30N 39°49' W 075°24'0 0.0
2017-Oct-05 01:00N 39°49' W 075°24'0 0.3
2017-Oct-05 00:30N 39°49' W 075°24'0 0.3
2017-Oct-05 00:00N 39°49' W 075°24'0 0.0
2017-Oct-04 23:30N 39°49' W 075°24'0 0.0
2017-Oct-04 22:57N 39°49' W 075°24'0 0.0
2017-Oct-04 22:30N 39°49' W 075°24'0 0.0
2017-Oct-04 22:00N 39°49' W 075°24'0 0.0
2017-Oct-04 21:30N 39°49' W 075°24'0 0.0
2017-Oct-04 21:00N 39°49' W 075°24'0 0.0
2017-Oct-04 20:30N 39°49' W 075°24'0 0.0
2017-Oct-04 20:00N 39°49' W 075°24'0 0.1
2017-Oct-04 19:30N 39°49' W 075°24'0 0.3
2017-Oct-04 19:00N 39°49' W 075°24'0 0.9
2017-Oct-04 18:30N 39°49' W 075°23'2 4.9
2017-Oct-04 18:01N 39°51' W 075°21'2 4.6
2017-Oct-04 17:31N 39°51' W 075°18'1 3.0
2017-Oct-04 17:00N 39°51' W 075°16'0 0.0
2017-Oct-04 16:30N 39°51' W 075°16'0 0.0
2017-Oct-04 16:00N 39°51' W 075°16'0 0.0
2017-Oct-04 15:30N 39°51' W 075°16'0 0.0
2017-Oct-04 15:00N 39°51' W 075°16'0 0.0
2017-Oct-04 14:30N 39°51' W 075°16'0 0.0
2017-Oct-04 14:00N 39°51' W 075°16'0 0.0
2017-Oct-04 13:30N 39°51' W 075°16'0 0.0
2017-Oct-04 13:00N 39°51' W 075°16'0 0.0
2017-Oct-04 12:30N 39°51' W 075°16'0 0.0
2017-Oct-04 12:00N 39°51' W 075°16'0 0.0
2017-Oct-04 11:30N 39°51' W 075°16'0 0.0
2017-Oct-04 11:00N 39°51' W 075°16'0 0.0
2017-Oct-04 10:30N 39°51' W 075°16'0 0.0
2017-Oct-04 10:00N 39°51' W 075°16'0 0.0
2017-Oct-04 09:30N 39°51' W 075°16'0 0.0
2017-Oct-04 09:00N 39°51' W 075°16'0 0.0
2017-Oct-04 08:30N 39°51' W 075°16'0 0.0
2017-Oct-04 08:00N 39°51' W 075°16'0 0.0
2017-Oct-04 07:30N 39°51' W 075°16'0 0.0
2017-Oct-04 07:00N 39°51' W 075°16'0 0.0
2017-Oct-04 06:30N 39°51' W 075°16'0 0.0
2017-Oct-04 06:00N 39°51' W 075°16'0 0.0
2017-Oct-04 05:30N 39°51' W 075°16'0 0.0
2017-Oct-04 05:00N 39°51' W 075°16'0 0.0
2017-Oct-04 04:30N 39°51' W 075°16'0 0.0
2017-Oct-04 03:57N 39°51' W 075°16'0 0.0
2017-Oct-04 03:30N 39°51' W 075°16'0 0.0
2017-Oct-04 03:00N 39°51' W 075°16'0 0.0
2017-Oct-04 02:30N 39°51' W 075°16'0 0.0
2017-Oct-04 02:00N 39°51' W 075°16'0 0.0
2017-Oct-04 01:30N 39°51' W 075°16'0 0.0
2017-Oct-04 01:00N 39°51' W 075°16'0 0.0
2017-Oct-04 00:30N 39°51' W 075°16'0 0.0
2017-Oct-03 23:57N 39°51' W 075°16'0 0.0
2017-Oct-03 23:30N 39°51' W 075°16'0 0.0
2017-Oct-03 23:00N 39°51' W 075°16'0 0.0
2017-Oct-03 22:30N 39°51' W 075°16'0 0.0
2017-Oct-03 22:00N 39°51' W 075°16'0 0.0
2017-Oct-03 21:30N 39°51' W 075°16'0 0.0
2017-Oct-03 21:00N 39°51' W 075°16'0 0.0
2017-Oct-03 20:30N 39°51' W 075°16'0 0.0
2017-Oct-03 20:00N 39°51' W 075°16'0 0.0
2017-Oct-03 19:30N 39°51' W 075°16'0 0.0
2017-Oct-03 19:00N 39°51' W 075°16'0 0.0
2017-Oct-03 18:30N 39°51' W 075°16'0 0.5
2017-Oct-03 18:00N 39°51' W 075°17'2 5.0
2017-Oct-03 17:30N 39°51' W 075°20'4 7.7
2017-Oct-03 17:00N 39°49' W 075°24'4 8.2
2017-Oct-03 16:30N 39°46' W 075°28'4 8.4
2017-Oct-03 16:01N 39°43' W 075°31'4 8.6
2017-Oct-03 15:30N 39°39' W 075°33'4 8.0
2017-Oct-03 15:00N 39°35' W 075°33'9 9.1
2017-Oct-03 14:00N 39°26' W 075°32'510.0
2017-Oct-03 13:30N 39°22' W 075°27'510.7
2017-Oct-03 13:00N 39°18' W 075°23'510.3
2017-Oct-03 12:30N 39°14' W 075°18'5 9.8
2017-Oct-03 12:00N 39°10' W 075°15'5 9.6
2017-Oct-03 11:30N 39°06' W 075°12'5 9.7
2017-Oct-03 11:00N 39°02' W 075°09'5 9.9
2017-Oct-03 10:30N 38°57' W 075°07'3 6.1
2017-Oct-03 10:00N 38°54' W 075°06'0 0.5
2017-Oct-03 09:29N 38°54' W 075°07'0 0.0
2017-Oct-03 08:47N 38°54' W 075°07'0 0.0
2017-Oct-03 08:29N 38°54' W 075°07'0 0.0
2017-Oct-03 07:47N 38°54' W 075°07'0 0.1
2017-Oct-03 07:29N 38°54' W 075°07'0 0.0
2017-Oct-03 06:59N 38°54' W 075°07'0 0.5
2017-Oct-03 06:29N 38°54' W 075°07'1 1.3
2017-Oct-03 06:00N 38°54' W 075°06'4 7.3
2017-Oct-03 05:31N 38°58' W 075°07'4 8.9
2017-Oct-03 05:01N 39°02' W 075°09'5 9.0
2017-Oct-03 04:30N 39°06' W 075°12'5 9.2
2017-Oct-03 04:01N 39°10' W 075°15'5 9.3
2017-Oct-03 03:31N 39°14' W 075°18'5 9.4
2017-Oct-03 03:00N 39°17' W 075°22'2 4.8
2017-Oct-03 02:30N 39°19' W 075°24'2 3.8
2017-Oct-03 02:01N 39°18' W 075°22'3 6.3
2017-Oct-03 01:31N 39°15' W 075°20'4 8.7
2017-Oct-03 01:00N 39°12' W 075°17'5 9.3
2017-Oct-03 00:31N 39°08' W 075°14'5 9.2
2017-Oct-03 00:00N 39°04' W 075°10'5 9.2
2017-Oct-02 23:31N 38°60' W 075°08'5 9.6
2017-Oct-02 23:00N 38°55' W 075°06'5 9.7
2017-Oct-02 22:30N 38°51' W 075°04'5 9.0
2017-Oct-02 21:58N 38°46' W 075°01'5 7.0
2017-Oct-02 21:17N 38°44' W 074°56'2 6.6
2017-Oct-02 20:55N 38°42' W 074°54'5 6.4
2017-Oct-02 20:12N 38°38' W 074°50'1 6.4
2017-Oct-02 19:59N 38°37' W 074°49'4 7.5
2017-Oct-02 19:26N 38°34' W 074°45'4 6.4
2017-Oct-02 18:53N 38°35' W 074°41'1 0.8
2017-Oct-02 18:13N 38°35' W 074°40'0 0.6
2017-Oct-02 17:45N 38°34' W 074°40'0 0.6
2017-Oct-02 17:28N 38°34' W 074°40'0 0.6
2017-Oct-02 16:59N 38°34' W 074°39'0 0.5
2017-Oct-02 16:26N 38°34' W 074°39'0 0.4
2017-Oct-02 16:00N 38°34' W 074°39'0 0.4
2017-Oct-02 15:16N 38°35' W 074°38'0 0.3
2017-Oct-02 14:59N 38°35' W 074°38'0 0.3
2017-Oct-02 14:30N 38°35' W 074°38'0 0.2
2017-Oct-02 13:59N 38°35' W 074°38'0 1.0
2017-Oct-02 13:30N 38°35' W 074°39'4 7.5
2017-Oct-02 13:00N 38°32' W 074°42'4 8.3
2017-Oct-02 12:30N 38°28' W 074°40'5 9.6
2017-Oct-02 12:00N 38°24' W 074°35'  
2017-Sep-29 11:22N 26°25' W 079°28'512.2
2017-Sep-29 11:00N 26°20' W 079°28'612.2
2017-Sep-29 10:30N 26°14' W 079°29'612.2
2017-Sep-29 10:00N 26°08' W 079°30'612.0
2017-Sep-29 09:30N 26°03' W 079°31'611.7
2017-Sep-29 09:00N 25°57' W 079°32'611.5
2017-Sep-29 08:30N 25°51' W 079°33'611.4
2017-Sep-29 08:00N 25°45' W 079°33'611.5
2017-Sep-29 07:30N 25°40' W 079°34'612.0
2017-Sep-29 07:00N 25°34' W 079°35'612.3
2017-Sep-29 06:30N 25°28' W 079°36'612.5
2017-Sep-29 06:00N 25°21' W 079°37'612.6
2017-Sep-29 05:29N 25°15' W 079°38'13011.3
2017-Sep-28 18:00N 23°48' W 081°24'   010 / 101013.3 5.4 30.024.331.0
Track history (hours):
 
Tides and Currents Weather Stations Pressure Air Temp Water Temp Dewpoint Dewpoint Depression Visibility Wind Speed Wind Dir Waves Ship Positions

Eagle Sydney

Last reported at 2017-Oct-07 03:08 UTC. Time now 2017-Oct-17 03:59 UTC.
Position N 38°14' W 074°28'.
Warning: this ship's position is 10 days out of date.

Length 229 m; draft 12 m.

Type: Ship (hazmat cat A). MMSI: 352124930.

Date/timePositionNaut miles runAvg speedWind from/ knotsBaromVisibWave heightAir tempDewpointWater temp
2017-Oct-07 03:08N 38°14' W 074°28'412.9
2017-Oct-07 02:51N 38°17' W 074°31'412.9
2017-Oct-07 02:30N 38°21' W 074°33'612.7
2017-Oct-07 02:00N 38°27' W 074°37'510.9
2017-Oct-07 01:30N 38°32' W 074°40'2 0.3
2017-Oct-06 19:46N 38°33' W 074°40'0 0.1
2017-Oct-06 19:30N 38°33' W 074°40'0 0.1
2017-Oct-06 19:00N 38°33' W 074°40'0 0.2
2017-Oct-06 18:30N 38°33' W 074°40'0 0.0
2017-Oct-06 18:00N 38°33' W 074°40'0 0.1
2017-Oct-06 17:28N 38°33' W 074°40'0 0.2
2017-Oct-06 17:00N 38°33' W 074°40'0 0.0
2017-Oct-06 16:30N 38°33' W 074°40'0 0.0
2017-Oct-06 15:58N 38°33' W 074°40'0 0.1
2017-Oct-06 15:30N 38°33' W 074°40'0 0.0
2017-Oct-06 15:00N 38°33' W 074°40'0 0.0
2017-Oct-06 14:30N 38°33' W 074°40'0 0.0
2017-Oct-06 14:00N 38°33' W 074°40'0 0.0
2017-Oct-06 13:30N 38°33' W 074°40'0 0.0
2017-Oct-06 13:00N 38°33' W 074°40'0 0.0
2017-Oct-06 12:30N 38°33' W 074°40'0 0.0
2017-Oct-06 11:58N 38°33' W 074°40'0 0.0
2017-Oct-06 11:28N 38°33' W 074°40'0 0.0
2017-Oct-06 10:58N 38°33' W 074°40'0 0.0
2017-Oct-06 10:25N 38°33' W 074°40'0 0.0
2017-Oct-06 09:40N 38°33' W 074°40'0 0.0
2017-Oct-06 09:31N 38°33' W 074°40'0 0.1
2017-Oct-06 08:58N 38°33' W 074°40'0 0.0
2017-Oct-06 08:31N 38°33' W 074°40'0 0.0
2017-Oct-06 07:46N 38°33' W 074°40'0 0.0
2017-Oct-06 07:28N 38°33' W 074°40'0 0.0
2017-Oct-06 06:58N 38°33' W 074°40'0 0.0
2017-Oct-06 06:31N 38°33' W 074°40'0 0.0
2017-Oct-06 05:58N 38°33' W 074°40'0 0.0
2017-Oct-06 05:28N 38°33' W 074°40'0 0.0
2017-Oct-06 04:31N 38°33' W 074°40'0 0.1
2017-Oct-06 04:22N 38°33' W 074°40'0 0.0
2017-Oct-06 03:58N 38°33' W 074°40'0 0.0
2017-Oct-06 03:19N 38°33' W 074°40'0 0.0
2017-Oct-06 02:46N 38°33' W 074°40'0 0.0
2017-Oct-06 02:13N 38°33' W 074°40'0 0.0
2017-Oct-06 01:58N 38°33' W 074°40'0 0.0
2017-Oct-06 01:19N 38°33' W 074°40'0 0.0
2017-Oct-06 00:49N 38°33' W 074°40'0 0.0
2017-Oct-06 00:28N 38°33' W 074°40'0 0.0
2017-Oct-05 23:58N 38°33' W 074°40'0 0.0
2017-Oct-05 23:28N 38°33' W 074°40'0 0.0
2017-Oct-05 22:28N 38°33' W 074°40'0 0.0
2017-Oct-05 21:58N 38°33' W 074°40'0 0.0
2017-Oct-05 16:52N 38°33' W 074°40'0 0.0
2017-Oct-05 15:28N 38°33' W 074°40'0 0.0
2017-Oct-05 14:58N 38°33' W 074°40'0 0.0
2017-Oct-05 14:28N 38°33' W 074°40'0 0.0
2017-Oct-05 14:01N 38°33' W 074°40'0 0.1
2017-Oct-05 13:30N 38°33' W 074°40'2 3.1
2017-Oct-05 13:01N 38°32' W 074°42'4 8.8
2017-Oct-05 12:30N 38°29' W 074°46'510.3
2017-Oct-05 12:00N 38°34' W 074°50'510.0
2017-Oct-05 11:30N 38°38' W 074°53'5 9.8
2017-Oct-05 11:00N 38°42' W 074°57'5 9.4
2017-Oct-05 10:30N 38°45' W 075°01'5 9.0
2017-Oct-05 10:01N 38°49' W 075°04'4 7.9
2017-Oct-05 09:30N 38°53' W 075°05'5 9.5
2017-Oct-05 09:01N 38°58' W 075°07'510.2
2017-Oct-05 08:30N 39°02' W 075°10'611.1
2017-Oct-05 08:00N 39°07' W 075°13'612.1
2017-Oct-05 07:31N 39°12' W 075°17'612.9
2017-Oct-05 07:01N 39°17' W 075°22'713.0
2017-Oct-05 06:30N 39°22' W 075°28'612.4
2017-Oct-05 06:00N 39°27' W 075°33'611.2
2017-Oct-05 05:30N 39°32' W 075°33'510.4
2017-Oct-05 05:00N 39°37' W 075°35'5 9.8
2017-Oct-05 04:31N 39°41' W 075°31'4 8.6
2017-Oct-05 04:01N 39°45' W 075°29'4 7.5
2017-Oct-05 03:30N 39°48' W 075°26'2 3.2
2017-Oct-05 03:00N 39°49' W 075°24'0 0.0
2017-Oct-05 02:30N 39°49' W 075°24'0 0.0
2017-Oct-05 02:00N 39°49' W 075°24'0 0.0
2017-Oct-05 01:30N 39°49' W 075°24'0 0.0
2017-Oct-05 01:00N 39°49' W 075°24'0 0.3
2017-Oct-05 00:30N 39°49' W 075°24'0 0.3
2017-Oct-05 00:00N 39°49' W 075°24'0 0.0
2017-Oct-04 23:30N 39°49' W 075°24'0 0.0
2017-Oct-04 22:57N 39°49' W 075°24'0 0.0
2017-Oct-04 22:30N 39°49' W 075°24'0 0.0
2017-Oct-04 22:00N 39°49' W 075°24'0 0.0
2017-Oct-04 21:30N 39°49' W 075°24'0 0.0
2017-Oct-04 21:00N 39°49' W 075°24'0 0.0
2017-Oct-04 20:30N 39°49' W 075°24'0 0.0
2017-Oct-04 20:00N 39°49' W 075°24'0 0.1
2017-Oct-04 19:30N 39°49' W 075°24'0 0.3
2017-Oct-04 19:00N 39°49' W 075°24'0 0.9
2017-Oct-04 18:30N 39°49' W 075°23'2 4.9
2017-Oct-04 18:01N 39°51' W 075°21'2 4.6
2017-Oct-04 17:31N 39°51' W 075°18'1 3.0
2017-Oct-04 17:00N 39°51' W 075°16'0 0.0
2017-Oct-04 16:30N 39°51' W 075°16'0 0.0
2017-Oct-04 16:00N 39°51' W 075°16'0 0.0
2017-Oct-04 15:30N 39°51' W 075°16'0 0.0
2017-Oct-04 15:00N 39°51' W 075°16'0 0.0
2017-Oct-04 14:30N 39°51' W 075°16'0 0.0
2017-Oct-04 14:00N 39°51' W 075°16'0 0.0
2017-Oct-04 13:30N 39°51' W 075°16'0 0.0
2017-Oct-04 13:00N 39°51' W 075°16'0 0.0
2017-Oct-04 12:30N 39°51' W 075°16'0 0.0
2017-Oct-04 12:00N 39°51' W 075°16'0 0.0
2017-Oct-04 11:30N 39°51' W 075°16'0 0.0
2017-Oct-04 11:00N 39°51' W 075°16'0 0.0
2017-Oct-04 10:30N 39°51' W 075°16'0 0.0
2017-Oct-04 10:00N 39°51' W 075°16'0 0.0
2017-Oct-04 09:30N 39°51' W 075°16'0 0.0
2017-Oct-04 09:00N 39°51' W 075°16'0 0.0
2017-Oct-04 08:30N 39°51' W 075°16'0 0.0
2017-Oct-04 08:00N 39°51' W 075°16'0 0.0
2017-Oct-04 07:30N 39°51' W 075°16'0 0.0
2017-Oct-04 07:00N 39°51' W 075°16'0 0.0
2017-Oct-04 06:30N 39°51' W 075°16'0 0.0
2017-Oct-04 06:00N 39°51' W 075°16'0 0.0
2017-Oct-04 05:30N 39°51' W 075°16'0 0.0
2017-Oct-04 05:00N 39°51' W 075°16'0 0.0
2017-Oct-04 04:30N 39°51' W 075°16'0 0.0
2017-Oct-04 03:57N 39°51' W 075°16'0 0.0
2017-Oct-04 03:30N 39°51' W 075°16'0 0.0
2017-Oct-04 03:00N 39°51' W 075°16'0 0.0
2017-Oct-04 02:30N 39°51' W 075°16'0 0.0
2017-Oct-04 02:00N 39°51' W 075°16'0 0.0
2017-Oct-04 01:30N 39°51' W 075°16'0 0.0
2017-Oct-04 01:00N 39°51' W 075°16'0 0.0
2017-Oct-04 00:30N 39°51' W 075°16'0 0.0
2017-Oct-03 23:57N 39°51' W 075°16'0 0.0
2017-Oct-03 23:30N 39°51' W 075°16'0 0.0
2017-Oct-03 23:00N 39°51' W 075°16'0 0.0
2017-Oct-03 22:30N 39°51' W 075°16'0 0.0
2017-Oct-03 22:00N 39°51' W 075°16'0 0.0
2017-Oct-03 21:30N 39°51' W 075°16'0 0.0
2017-Oct-03 21:00N 39°51' W 075°16'0 0.0
2017-Oct-03 20:30N 39°51' W 075°16'0 0.0
2017-Oct-03 20:00N 39°51' W 075°16'0 0.0
2017-Oct-03 19:30N 39°51' W 075°16'0 0.0
2017-Oct-03 19:00N 39°51' W 075°16'0 0.0
2017-Oct-03 18:30N 39°51' W 075°16'0 0.5
2017-Oct-03 18:00N 39°51' W 075°17'2 5.0
2017-Oct-03 17:30N 39°51' W 075°20'4 7.7
2017-Oct-03 17:00N 39°49' W 075°24'4 8.2
2017-Oct-03 16:30N 39°46' W 075°28'4 8.4
2017-Oct-03 16:01N 39°43' W 075°31'4 8.6
2017-Oct-03 15:30N 39°39' W 075°33'4 8.0
2017-Oct-03 15:00N 39°35' W 075°33'9 9.1
2017-Oct-03 14:00N 39°26' W 075°32'510.0
2017-Oct-03 13:30N 39°22' W 075°27'510.7
2017-Oct-03 13:00N 39°18' W 075°23'510.3
2017-Oct-03 12:30N 39°14' W 075°18'5 9.8
2017-Oct-03 12:00N 39°10' W 075°15'5 9.6
2017-Oct-03 11:30N 39°06' W 075°12'5 9.7
2017-Oct-03 11:00N 39°02' W 075°09'5 9.9
2017-Oct-03 10:30N 38°57' W 075°07'3 6.1
2017-Oct-03 10:00N 38°54' W 075°06'0 0.5
2017-Oct-03 09:29N 38°54' W 075°07'0 0.0
2017-Oct-03 08:47N 38°54' W 075°07'0 0.0
2017-Oct-03 08:29N 38°54' W 075°07'0 0.0
2017-Oct-03 07:47N 38°54' W 075°07'0 0.1
2017-Oct-03 07:29N 38°54' W 075°07'0 0.0
2017-Oct-03 06:59N 38°54' W 075°07'0 0.5
2017-Oct-03 06:29N 38°54' W 075°07'1 1.3
2017-Oct-03 06:00N 38°54' W 075°06'4 7.3
2017-Oct-03 05:31N 38°58' W 075°07'4 8.9
2017-Oct-03 05:01N 39°02' W 075°09'5 9.0
2017-Oct-03 04:30N 39°06' W 075°12'5 9.2
2017-Oct-03 04:01N 39°10' W 075°15'5 9.3
2017-Oct-03 03:31N 39°14' W 075°18'5 9.4
2017-Oct-03 03:00N 39°17' W 075°22'2 4.8
2017-Oct-03 02:30N 39°19' W 075°24'2 3.8
2017-Oct-03 02:01N 39°18' W 075°22'3 6.3
2017-Oct-03 01:31N 39°15' W 075°20'4 8.7
2017-Oct-03 01:00N 39°12' W 075°17'5 9.3
2017-Oct-03 00:31N 39°08' W 075°14'5 9.2
2017-Oct-03 00:00N 39°04' W 075°10'5 9.2
2017-Oct-02 23:31N 38°60' W 075°08'5 9.6
2017-Oct-02 23:00N 38°55' W 075°06'5 9.7
2017-Oct-02 22:30N 38°51' W 075°04'5 9.0
2017-Oct-02 21:58N 38°46' W 075°01'5 7.0
2017-Oct-02 21:17N 38°44' W 074°56'2 6.6
2017-Oct-02 20:55N 38°42' W 074°54'5 6.4
2017-Oct-02 20:12N 38°38' W 074°50'1 6.4
2017-Oct-02 19:59N 38°37' W 074°49'4 7.5
2017-Oct-02 19:26N 38°34' W 074°45'4 6.4
2017-Oct-02 18:53N 38°35' W 074°41'1 0.8
2017-Oct-02 18:13N 38°35' W 074°40'0 0.6
2017-Oct-02 17:45N 38°34' W 074°40'0 0.6
2017-Oct-02 17:28N 38°34' W 074°40'0 0.6
2017-Oct-02 16:59N 38°34' W 074°39'0 0.5
2017-Oct-02 16:26N 38°34' W 074°39'0 0.4
2017-Oct-02 16:00N 38°34' W 074°39'0 0.4
2017-Oct-02 15:16N 38°35' W 074°38'0 0.3
2017-Oct-02 14:59N 38°35' W 074°38'0 0.3
2017-Oct-02 14:30N 38°35' W 074°38'0 0.2
2017-Oct-02 13:59N 38°35' W 074°38'0 1.0
2017-Oct-02 13:30N 38°35' W 074°39'4 7.5
2017-Oct-02 13:00N 38°32' W 074°42'4 8.3
2017-Oct-02 12:30N 38°28' W 074°40'5 9.6
2017-Oct-02 12:00N 38°24' W 074°35'  
2017-Sep-29 11:22N 26°25' W 079°28'512.2
2017-Sep-29 11:00N 26°20' W 079°28'612.2
2017-Sep-29 10:30N 26°14' W 079°29'612.2
2017-Sep-29 10:00N 26°08' W 079°30'612.0
2017-Sep-29 09:30N 26°03' W 079°31'611.7
2017-Sep-29 09:00N 25°57' W 079°32'611.5
2017-Sep-29 08:30N 25°51' W 079°33'611.4
2017-Sep-29 08:00N 25°45' W 079°33'611.5
2017-Sep-29 07:30N 25°40' W 079°34'612.0
2017-Sep-29 07:00N 25°34' W 079°35'612.3
2017-Sep-29 06:30N 25°28' W 079°36'612.5
2017-Sep-29 06:00N 25°21' W 079°37'612.6
2017-Sep-29 05:29N 25°15' W 079°38'13011.3
2017-Sep-28 18:00N 23°48' W 081°24'   010 / 101013.3 5.4 30.024.331.0

Dump ship's entire track history